Time;durP1;ratioP1;P1;durP2;ratioP2;P2;SDS_P1;SDS_P2;PMS_P1;PMS_P2;Temp;Humidity;BMP_temperature;BMP_pressure;BME280_temperature;BME280_humidity;BME280_pressure;Samples;Min_cycle;Max_cycle;Signal;HPM_P1;HPM_P2
2023/08/02 00:02:19;;;;;;;0.77;0.77;;;16.80;99.90;;;;;;5093022;28;20097;-70
2023/08/02 00:04:45;;;;;;;0.10;0.10;;;16.70;99.90;;;;;;5093138;28;20028;-70
2023/08/02 00:07:10;;;;;;;0.55;0.35;;;16.60;99.90;;;;;;5087893;28;20074;-70
2023/08/02 00:09:36;;;;;;;2.20;1.23;;;16.80;99.90;;;;;;5084195;28;20031;-73
2023/08/02 00:12:02;;;;;;;0.32;0.20;;;16.70;99.90;;;;;;5093032;28;20012;-70
2023/08/02 00:14:28;;;;;;;0.00;0.00;;;16.60;99.90;;;;;;5093061;28;20043;-70
2023/08/02 00:16:54;;;;;;;0.10;0.10;;;16.80;99.90;;;;;;5092707;28;20031;-70
2023/08/02 00:19:20;;;;;;;0.00;0.00;;;16.80;99.90;;;;;;5093147;28;20028;-70
2023/08/02 00:21:45;;;;;;;0.65;0.60;;;16.80;99.90;;;;;;5091822;28;20075;-70
2023/08/02 00:24:11;;;;;;;0.25;0.25;;;16.80;99.90;;;;;;5092813;28;20107;-70
2023/08/02 00:26:37;;;;;;;0.25;0.25;;;16.90;99.90;;;;;;5092637;28;20493;-70
2023/08/02 00:29:03;;;;;;;0.17;0.17;;;16.90;99.90;;;;;;5091635;28;20380;-70
2023/08/02 00:31:29;;;;;;;0.00;0.00;;;16.90;99.90;;;;;;5092483;28;20059;-70
2023/08/02 00:33:54;;;;;;;0.65;0.22;;;16.90;99.90;;;;;;5092802;28;20168;-70
2023/08/02 00:36:20;;;;;;;0.38;0.20;;;16.90;99.90;;;;;;5092763;28;20028;-70
2023/08/02 00:38:46;;;;;;;0.10;0.10;;;16.80;99.90;;;;;;5091709;28;20036;-69
2023/08/02 00:41:21;;;;;;;0.35;0.35;;;16.90;99.90;;;;;;5091277;28;20495;-70
2023/08/02 00:43:48;;;;;;;0.45;0.45;;;16.90;99.90;;;;;;5091676;28;20028;-70
2023/08/02 00:46:16;;;;;;;0.00;0.00;;;16.90;99.90;;;;;;5091197;28;20031;-70
2023/08/02 00:48:43;;;;;;;0.10;0.10;;;17.00;99.90;;;;;;5092925;28;20032;-69
2023/08/02 00:51:15;;;;;;;0.00;0.00;;;17.10;99.90;;;;;;5092530;28;20353;-70
2023/08/02 00:53:44;;;;;;;0.08;0.08;;;17.10;99.90;;;;;;5092602;28;20032;-70
2023/08/02 00:56:10;;;;;;;2.92;0.85;;;17.10;99.90;;;;;;5091115;28;20101;-71
2023/08/02 00:58:37;;;;;;;0.15;0.15;;;17.30;99.90;;;;;;5091392;28;20047;-71
2023/08/02 01:01:09;;;;;;;3.50;1.75;;;17.30;99.90;;;;;;5090782;28;20133;-71
2023/08/02 01:03:40;;;;;;;3.38;0.75;;;17.10;99.90;;;;;;5091334;28;20028;-70
2023/08/02 01:06:26;;;;;;;0.00;0.00;;;17.20;99.90;;;;;;5091263;28;20064;-70
2023/08/02 01:08:59;;;;;;;0.08;0.08;;;17.30;99.90;;;;;;5077068;28;20044;-70
2023/08/02 01:11:30;;;;;;;0.40;0.40;;;17.30;99.90;;;;;;5091228;28;20380;-70
2023/08/02 01:13:58;;;;;;;0.20;0.20;;;17.30;99.90;;;;;;5092361;28;20038;-70
2023/08/02 01:16:25;;;;;;;1.20;0.60;;;17.10;99.90;;;;;;5092031;28;20495;-70
2023/08/02 01:18:51;;;;;;;0.10;0.10;;;17.10;99.90;;;;;;5092539;28;20092;-72
2023/08/02 01:21:17;;;;;;;0.10;0.10;;;17.20;99.90;;;;;;5092243;28;20468;-70
2023/08/02 01:23:43;;;;;;;0.95;0.65;;;17.10;99.90;;;;;;5092426;28;20024;-70
2023/08/02 01:26:11;;;;;;;0.50;0.50;;;17.20;99.90;;;;;;5091182;28;20020;-70
2023/08/02 01:28:42;;;;;;;0.57;0.57;;;17.30;99.90;;;;;;5091835;28;20024;-70
2023/08/02 01:31:10;;;;;;;0.38;0.38;;;17.30;99.90;;;;;;5082625;28;20477;-70
2023/08/02 01:33:42;;;;;;;0.05;0.05;;;17.20;99.90;;;;;;5070607;28;20384;-70
2023/08/02 01:36:10;;;;;;;0.32;0.32;;;17.20;99.90;;;;;;5071993;28;20094;-70
2023/08/02 01:38:36;;;;;;;2.20;0.77;;;17.20;99.90;;;;;;5070807;28;20037;-70
2023/08/02 01:41:02;;;;;;;5.20;1.70;;;17.30;99.90;;;;;;5073960;28;20111;-69
2023/08/02 01:43:28;;;;;;;6.72;0.70;;;17.20;99.90;;;;;;5075234;28;20028;-70
2023/08/02 01:45:53;;;;;;;1.48;0.28;;;17.20;99.90;;;;;;5075506;28;20366;-70
2023/08/02 01:48:19;;;;;;;3.40;0.85;;;17.30;99.90;;;;;;5075384;28;20115;-70
2023/08/02 01:50:45;;;;;;;5.13;0.75;;;17.30;99.90;;;;;;5075428;28;20021;-69
2023/08/02 01:53:12;;;;;;;0.70;0.22;;;17.30;99.90;;;;;;5074179;28;20028;-70
2023/08/02 01:55:38;;;;;;;0.10;0.10;;;17.30;99.90;;;;;;5075517;28;20020;-69
2023/08/02 01:58:04;;;;;;;1.90;0.50;;;17.30;99.90;;;;;;5073313;28;20412;-69
2023/08/02 02:00:29;;;;;;;1.02;0.55;;;17.20;99.90;;;;;;5074021;28;20032;-70
2023/08/02 02:02:57;;;;;;;1.40;0.50;;;17.20;99.90;;;;;;5056967;28;20036;-70
2023/08/02 02:05:23;;;;;;;0.65;0.43;;;17.30;99.90;;;;;;5074021;28;20029;-70
2023/08/02 02:07:49;;;;;;;0.25;0.25;;;17.30;99.90;;;;;;5073690;28;20035;-70
2023/08/02 02:10:16;;;;;;;2.78;0.32;;;17.50;99.90;;;;;;5075151;28;20052;-70
2023/08/02 02:12:42;;;;;;;13.10;1.92;;;17.50;99.90;;;;;;5078105;28;20082;-70
2023/08/02 02:15:08;;;;;;;0.00;0.00;;;17.50;99.90;;;;;;5085713;28;20415;-70
2023/08/02 02:17:34;;;;;;;1.85;0.65;;;17.50;99.90;;;;;;5068029;28;20082;-70
2023/08/02 02:20:00;;;;;;;4.82;0.90;;;17.30;99.90;;;;;;5089214;28;20028;-70
2023/08/02 02:22:26;;;;;;;0.17;0.17;;;17.40;99.90;;;;;;5093896;28;20032;-70
2023/08/02 02:24:51;;;;;;;0.70;0.70;;;17.40;99.90;;;;;;5094119;28;20350;-70
2023/08/02 02:27:18;;;;;;;0.43;0.43;;;17.40;99.90;;;;;;5080250;28;20044;-70
2023/08/02 02:29:46;;;;;;;0.70;0.70;;;17.40;99.90;;;;;;5094842;28;20558;-70
2023/08/02 02:32:11;;;;;;;0.20;0.20;;;17.40;99.90;;;;;;5095110;28;20024;-71
2023/08/02 02:34:37;;;;;;;0.55;0.55;;;17.50;99.90;;;;;;5093579;28;20024;-70
2023/08/02 02:37:03;;;;;;;0.10;0.10;;;17.50;99.90;;;;;;5094964;28;20044;-70
2023/08/02 02:39:29;;;;;;;0.80;0.57;;;17.50;99.90;;;;;;5076646;28;20012;-70
2023/08/02 02:41:55;;;;;;;0.10;0.10;;;17.50;99.90;;;;;;5093207;28;20032;-70
2023/08/02 02:44:21;;;;;;;0.20;0.20;;;17.50;99.90;;;;;;5080032;28;20013;-70
2023/08/02 02:46:46;;;;;;;1.23;1.13;;;17.70;99.90;;;;;;5093605;28;20046;-70
2023/08/02 02:49:12;;;;;;;0.55;0.55;;;17.60;99.90;;;;;;5094626;28;20061;-70
2023/08/02 02:51:38;;;;;;;0.20;0.20;;;17.50;99.90;;;;;;5093760;28;20476;-70
2023/08/02 02:54:04;;;;;;;0.82;0.82;;;17.50;99.90;;;;;;5094323;28;20023;-70
2023/08/02 02:56:30;;;;;;;1.90;0.80;;;17.50;99.90;;;;;;5092889;28;20093;-70
2023/08/02 02:58:55;;;;;;;0.75;0.60;;;17.40;99.90;;;;;;5093168;28;20066;-70
2023/08/02 03:01:21;;;;;;;0.90;0.63;;;17.40;99.90;;;;;;5094137;28;20047;-71
2023/08/02 03:03:47;;;;;;;1.35;0.65;;;17.40;99.90;;;;;;5094418;28;20097;-70
2023/08/02 03:06:13;;;;;;;0.40;0.40;;;17.40;99.90;;;;;;5094330;28;20111;-70
2023/08/02 03:08:38;;;;;;;0.28;0.28;;;17.40;99.90;;;;;;5093227;28;20446;-70
2023/08/02 03:11:04;;;;;;;0.73;0.43;;;17.50;99.90;;;;;;5094085;28;20111;-71
2023/08/02 03:13:30;;;;;;;0.15;0.15;;;17.50;99.90;;;;;;5094239;28;20424;-71
2023/08/02 03:15:56;;;;;;;0.88;0.65;;;17.50;99.90;;;;;;5094192;28;20473;-71
2023/08/02 03:18:22;;;;;;;0.05;0.05;;;17.50;99.90;;;;;;5078459;28;20040;-71
2023/08/02 03:20:47;;;;;;;0.68;0.68;;;17.50;99.90;;;;;;5094150;28;20107;-71
2023/08/02 03:23:13;;;;;;;0.20;0.20;;;17.50;99.90;;;;;;5094143;28;20027;-70
2023/08/02 03:25:39;;;;;;;2.00;0.60;;;17.40;99.90;;;;;;5093412;28;20020;-70
2023/08/02 03:28:05;;;;;;;2.63;2.13;;;17.40;99.90;;;;;;5092602;28;20024;-72
2023/08/02 03:30:31;;;;;;;3.95;0.77;;;17.40;99.90;;;;;;5092586;28;20357;-69
2023/08/02 03:32:56;;;;;;;3.78;1.30;;;17.50;99.90;;;;;;5094417;28;20043;-71
2023/08/02 03:35:22;;;;;;;1.13;0.85;;;17.40;99.90;;;;;;5093640;28;20091;-74
2023/08/02 03:37:48;;;;;;;0.75;0.75;;;17.40;99.90;;;;;;5092511;28;20404;-72
2023/08/02 03:40:14;;;;;;;2.50;1.63;;;17.40;99.90;;;;;;5093102;28;20034;-71
2023/08/02 03:42:39;;;;;;;7.60;1.70;;;17.50;99.90;;;;;;5093857;28;20020;-72
2023/08/02 03:45:06;;;;;;;0.40;0.38;;;17.50;99.90;;;;;;5093356;28;20115;-72
2023/08/02 03:47:32;;;;;;;1.05;0.55;;;17.50;99.90;;;;;;5093800;28;20024;-74
2023/08/02 03:49:57;;;;;;;1.10;0.73;;;17.50;99.90;;;;;;5093440;28;20112;-76
2023/08/02 03:52:23;;;;;;;0.30;0.20;;;17.60;99.90;;;;;;5092169;28;20074;-76
2023/08/02 03:54:49;;;;;;;1.20;0.85;;;17.60;99.90;;;;;;5093160;28;20024;-79
2023/08/02 03:57:15;;;;;;;1.90;1.77;;;17.50;99.90;;;;;;5093248;28;20043;-79
2023/08/02 03:59:41;;;;;;;3.83;1.58;;;17.60;99.90;;;;;;5093283;28;20016;-80
2023/08/02 04:02:06;;;;;;;0.22;0.22;;;17.60;99.90;;;;;;5093146;28;20441;-77
2023/08/02 04:04:32;;;;;;;0.77;0.57;;;17.70;99.90;;;;;;5091815;28;20043;-77
2023/08/02 04:06:58;;;;;;;1.23;0.80;;;17.60;99.90;;;;;;5091665;28;20476;-69
2023/08/02 04:09:23;;;;;;;3.70;0.60;;;17.70;99.90;;;;;;5091535;28;20389;-69
2023/08/02 04:11:49;;;;;;;0.40;0.38;;;17.70;99.90;;;;;;5093011;28;20028;-69
2023/08/02 04:14:15;;;;;;;0.65;0.20;;;17.70;99.90;;;;;;5093139;28;20024;-71
2023/08/02 04:16:41;;;;;;;1.48;0.15;;;17.70;99.90;;;;;;5088608;28;20044;-69
2023/08/02 04:19:06;;;;;;;1.15;0.63;;;17.70;99.90;;;;;;5083181;28;20023;-69
2023/08/02 04:21:32;;;;;;;0.95;0.65;;;17.80;99.90;;;;;;5091735;28;20040;-69
2023/08/02 04:23:58;;;;;;;0.40;0.40;;;17.70;99.90;;;;;;5092780;28;20035;-70
2023/08/02 04:26:24;;;;;;;0.40;0.40;;;17.90;99.90;;;;;;5092717;28;20038;-70
2023/08/02 04:28:50;;;;;;;0.93;0.85;;;17.80;99.90;;;;;;5093025;28;20077;-72
2023/08/02 04:31:15;;;;;;;0.10;0.10;;;17.80;99.90;;;;;;5092711;28;20054;-69
2023/08/02 04:33:41;;;;;;;0.98;0.82;;;17.90;99.90;;;;;;5092795;28;20020;-70
2023/08/02 04:36:07;;;;;;;0.95;0.93;;;17.80;99.90;;;;;;5092707;28;20036;-70
2023/08/02 04:38:33;;;;;;;0.30;0.30;;;17.90;99.90;;;;;;5092283;28;20024;-70
2023/08/02 04:40:59;;;;;;;1.83;0.77;;;17.90;99.90;;;;;;5092685;28;20482;-69
2023/08/02 04:43:24;;;;;;;0.00;0.00;;;17.90;99.90;;;;;;5092138;28;20031;-70
2023/08/02 04:45:50;;;;;;;0.55;0.55;;;18.00;99.90;;;;;;5092447;28;20027;-70
2023/08/02 04:48:17;;;;;;;0.32;0.28;;;18.10;99.90;;;;;;5092805;28;20028;-70
2023/08/02 04:50:43;;;;;;;0.47;0.40;;;18.10;99.90;;;;;;5092176;28;20062;-70
2023/08/02 04:53:09;;;;;;;0.17;0.17;;;18.10;99.90;;;;;;5092238;28;20020;-69
2023/08/02 04:55:42;;;;;;;1.13;1.00;;;18.00;99.90;;;;;;5092378;28;20020;-71
2023/08/02 04:58:09;;;;;;;0.05;0.05;;;18.00;99.90;;;;;;5092527;28;20094;-69
2023/08/02 05:00:35;;;;;;;3.70;0.52;;;18.00;99.90;;;;;;5090572;28;20087;-70
2023/08/02 05:03:01;;;;;;;0.35;0.35;;;18.00;99.90;;;;;;5079483;28;20150;-71
2023/08/02 05:05:27;;;;;;;13.23;2.03;;;18.20;99.90;;;;;;5090360;28;20028;-69
2023/08/02 05:07:52;;;;;;;1.45;0.90;;;18.20;99.90;;;;;;5071795;28;20377;-69
2023/08/02 05:10:18;;;;;;;2.17;1.35;;;18.00;99.90;;;;;;5072441;28;20028;-70
2023/08/02 05:12:44;;;;;;;1.48;1.38;;;18.00;99.90;;;;;;5072049;28;20024;-69
2023/08/02 05:15:10;;;;;;;0.85;0.65;;;18.10;99.90;;;;;;5072983;28;20021;-69
2023/08/02 05:17:36;;;;;;;0.20;0.20;;;18.10;99.90;;;;;;5074577;28;20044;-70
2023/08/02 05:20:02;;;;;;;0.93;0.80;;;18.10;99.90;;;;;;5094165;28;20074;-70
2023/08/02 05:22:28;;;;;;;0.38;0.38;;;18.20;99.90;;;;;;5096139;28;20036;-79
2023/08/02 05:24:53;;;;;;;0.38;0.38;;;18.20;99.90;;;;;;5096296;28;20020;-80
2023/08/02 05:27:19;;;;;;;0.00;0.00;;;18.20;99.90;;;;;;5095833;28;20423;-78
2023/08/02 05:29:45;;;;;;;0.40;0.40;;;18.20;99.90;;;;;;5096294;28;20016;-79
2023/08/02 05:32:11;;;;;;;0.32;0.30;;;18.30;99.90;;;;;;5096372;28;20028;-79
2023/08/02 05:34:37;;;;;;;0.80;0.47;;;18.30;99.90;;;;;;5096070;28;20032;-79
2023/08/02 05:37:03;;;;;;;0.75;0.75;;;18.40;99.90;;;;;;5095534;28;20036;-79
2023/08/02 05:39:29;;;;;;;0.30;0.30;;;18.30;99.90;;;;;;5095981;28;20020;-80
2023/08/02 05:41:54;;;;;;;0.57;0.47;;;18.30;99.90;;;;;;5094688;28;20358;-79
2023/08/02 05:44:20;;;;;;;4.95;0.30;;;18.20;99.90;;;;;;5096054;28;20016;-73
2023/08/02 05:46:46;;;;;;;2.33;1.42;;;18.30;99.90;;;;;;5095860;28;20039;-80
2023/08/02 05:49:12;;;;;;;1.00;0.65;;;18.20;99.90;;;;;;5095689;28;20028;-80
2023/08/02 05:51:37;;;;;;;3.03;1.05;;;18.20;99.90;;;;;;5095263;28;20023;-77
2023/08/02 05:54:03;;;;;;;0.45;0.28;;;18.20;99.90;;;;;;5095606;28;20028;-80
2023/08/02 05:56:29;;;;;;;0.40;0.32;;;18.20;99.90;;;;;;5095753;28;20116;-80
2023/08/02 05:58:55;;;;;;;0.43;0.43;;;18.20;99.90;;;;;;5095373;28;20044;-70
2023/08/02 06:01:21;;;;;;;0.38;0.38;;;18.30;99.90;;;;;;5095653;28;20035;-71
2023/08/02 06:03:46;;;;;;;0.40;0.40;;;18.30;99.90;;;;;;5087982;28;20103;-72
2023/08/02 06:06:12;;;;;;;0.10;0.10;;;18.30;99.90;;;;;;5076631;28;20015;-71
2023/08/02 06:08:40;;;;;;;0.40;0.40;;;18.30;99.90;;;;;;5078753;28;20028;-71
2023/08/02 06:11:06;;;;;;;0.10;0.10;;;18.30;99.90;;;;;;5075268;28;20488;-73
2023/08/02 06:13:32;;;;;;;0.30;0.30;;;18.30;99.90;;;;;;5077095;28;20021;-78
2023/08/02 06:15:57;;;;;;;13.77;0.77;;;18.30;99.90;;;;;;5076933;28;20388;-72
2023/08/02 06:18:23;;;;;;;0.55;0.35;;;18.40;99.90;;;;;;5081770;28;20020;-71
2023/08/02 06:20:49;;;;;;;0.80;0.77;;;18.40;99.90;;;;;;5082378;28;20103;-71
2023/08/02 06:23:15;;;;;;;0.47;0.40;;;18.40;99.90;;;;;;5084484;28;20032;-71
2023/08/02 06:25:41;;;;;;;0.40;0.40;;;18.50;99.90;;;;;;5080543;28;20362;-73
2023/08/02 06:28:06;;;;;;;0.65;0.63;;;18.40;99.90;;;;;;5079505;28;20134;-79
2023/08/02 06:30:32;;;;;;;0.08;0.08;;;18.40;99.90;;;;;;5080132;28;20099;-79
2023/08/02 06:32:58;;;;;;;0.75;0.35;;;18.40;99.90;;;;;;5089354;28;20020;-79
2023/08/02 06:35:24;;;;;;;0.38;0.22;;;18.50;99.90;;;;;;5081856;28;20016;-80
2023/08/02 06:37:49;;;;;;;1.67;0.30;;;18.60;99.90;;;;;;5077763;28;20037;-75
2023/08/02 06:40:15;;;;;;;0.17;0.17;;;18.60;99.90;;;;;;5077424;28;20016;-79
2023/08/02 06:42:41;;;;;;;0.20;0.20;;;18.60;99.90;;;;;;5081160;28;20496;-79
2023/08/02 06:45:07;;;;;;;0.20;0.20;;;18.70;99.90;;;;;;5088361;28;20024;-79
2023/08/02 06:47:34;;;;;;;0.75;0.65;;;18.70;99.90;;;;;;5081132;28;20031;-73
2023/08/02 06:50:00;;;;;;;0.10;0.10;;;18.80;99.90;;;;;;5078765;28;20384;-69
2023/08/02 06:52:29;;;;;;;0.10;0.10;;;18.80;99.90;;;;;;5074727;28;20024;-69
2023/08/02 06:54:55;;;;;;;0.47;0.47;;;18.80;99.90;;;;;;5082450;28;20027;-73
2023/08/02 06:57:24;;;;;;;0.10;0.10;;;18.90;99.90;;;;;;5084522;28;20037;-69
2023/08/02 06:59:51;;;;;;;0.17;0.17;;;19.10;99.90;;;;;;5080219;28;20044;-69
2023/08/02 07:02:17;;;;;;;0.30;0.30;;;19.10;99.90;;;;;;5078003;28;20065;-69
2023/08/02 07:04:42;;;;;;;0.03;0.03;;;19.10;99.90;;;;;;5087839;28;20028;-69
2023/08/02 07:07:08;;;;;;;0.85;0.60;;;19.20;99.90;;;;;;5089476;28;20028;-69
2023/08/02 07:09:34;;;;;;;0.63;0.63;;;19.10;99.90;;;;;;5081386;28;20016;-69
2023/08/02 07:12:00;;;;;;;0.00;0.00;;;19.20;99.90;;;;;;5080729;28;20033;-69
2023/08/02 07:14:25;;;;;;;0.10;0.10;;;19.30;99.90;;;;;;5075268;28;20032;-69
2023/08/02 07:16:51;;;;;;;0.00;0.00;;;19.40;99.90;;;;;;5079697;28;20077;-70
2023/08/02 07:19:17;;;;;;;0.00;0.00;;;19.40;99.90;;;;;;5093050;28;20484;-69
2023/08/02 07:21:43;;;;;;;0.20;0.20;;;19.40;99.90;;;;;;5091774;28;20032;-69
2023/08/02 07:24:09;;;;;;;0.10;0.10;;;19.30;99.90;;;;;;5093070;28;20020;-69
2023/08/02 07:26:35;;;;;;;0.30;0.30;;;19.40;99.90;;;;;;5092842;28;20016;-69
2023/08/02 07:29:00;;;;;;;0.30;0.30;;;19.50;99.90;;;;;;5092624;28;20428;-69
2023/08/02 07:31:26;;;;;;;0.55;0.30;;;19.60;99.90;;;;;;5084756;28;20113;-69
2023/08/02 07:33:52;;;;;;;0.10;0.10;;;19.80;99.90;;;;;;5082054;28;20491;-69
2023/08/02 07:36:19;;;;;;;0.10;0.10;;;19.80;99.90;;;;;;5084916;28;20730;-69
2023/08/02 07:38:46;;;;;;;0.20;0.20;;;20.00;99.90;;;;;;5059754;28;20397;-70
2023/08/02 07:41:12;;;;;;;0.15;0.10;;;20.10;99.90;;;;;;5083363;28;20016;-69
2023/08/02 07:43:38;;;;;;;0.30;0.30;;;20.20;99.90;;;;;;5075318;28;20024;-71
2023/08/02 07:46:03;;;;;;;0.17;0.17;;;20.20;99.90;;;;;;5075064;28;20539;-69
2023/08/02 07:48:30;;;;;;;0.00;0.00;;;20.30;99.90;;;;;;5074142;28;20180;-70
2023/08/02 07:50:56;;;;;;;0.10;0.10;;;20.40;99.90;;;;;;5076228;28;20086;-71
2023/08/02 07:53:22;;;;;;;0.00;0.00;;;20.50;99.90;;;;;;5073010;28;20028;-70
2023/08/02 07:55:48;;;;;;;0.38;0.32;;;20.40;99.90;;;;;;5068933;28;20017;-72
2023/08/02 07:58:16;;;;;;;4.35;0.55;;;20.50;99.90;;;;;;5084489;28;20042;-70
2023/08/02 08:00:41;;;;;;;2.45;0.43;;;20.70;99.90;;;;;;5080575;28;20024;-77
2023/08/02 08:03:07;;;;;;;5.78;0.80;;;20.70;99.90;;;;;;5090197;28;20107;-78
2023/08/02 08:05:33;;;;;;;2.17;0.55;;;20.70;99.90;;;;;;5077255;28;20039;-73
2023/08/02 08:07:59;;;;;;;0.17;0.17;;;20.60;99.90;;;;;;5084772;28;20017;-77
2023/08/02 08:10:26;;;;;;;0.10;0.10;;;20.80;99.90;;;;;;5083186;28;20027;-80
2023/08/02 08:12:51;;;;;;;1.63;1.52;;;20.50;99.90;;;;;;5082606;28;20024;-75
2023/08/02 08:15:17;;;;;;;2.67;0.40;;;20.40;99.90;;;;;;5073407;28;20374;-78
2023/08/02 08:17:43;;;;;;;0.32;0.32;;;20.50;99.90;;;;;;5075209;28;20493;-71
2023/08/02 08:20:10;;;;;;;1.00;0.93;;;20.40;99.90;;;;;;5089665;28;20103;-77
2023/08/02 08:22:35;;;;;;;0.20;0.20;;;20.60;99.90;;;;;;5092184;28;20028;-77
2023/08/02 08:25:01;;;;;;;0.50;0.45;;;20.60;99.90;;;;;;5090145;28;20128;-79
2023/08/02 08:27:27;;;;;;;0.45;0.45;;;20.50;99.90;;;;;;5092199;28;20107;-78
2023/08/02 08:29:53;;;;;;;0.08;0.08;;;20.30;99.90;;;;;;5091389;28;20024;-77
2023/08/02 08:32:20;;;;;;;0.40;0.40;;;20.20;99.90;;;;;;5090756;28;20027;-78
2023/08/02 08:34:45;;;;;;;0.30;0.30;;;20.30;99.90;;;;;;5088598;28;20028;-77
2023/08/02 08:37:11;;;;;;;0.00;0.00;;;20.30;99.90;;;;;;5091512;28;20527;-78
2023/08/02 08:39:38;;;;;;;0.00;0.00;;;20.40;99.90;;;;;;5091916;28;20472;-72
2023/08/02 08:42:08;;;;;;;0.03;0.03;;;20.60;99.90;;;;;;5091327;28;20107;-69
2023/08/02 08:44:37;;;;;;;0.25;0.15;;;20.60;99.90;;;;;;5091768;28;20035;-69
2023/08/02 08:47:07;;;;;;;0.00;0.00;;;20.60;99.90;;;;;;5091647;28;20036;-69
2023/08/02 08:49:33;;;;;;;0.13;0.13;;;20.80;99.90;;;;;;5091944;28;20036;-70
2023/08/02 08:52:05;;;;;;;0.35;0.20;;;21.00;99.90;;;;;;5095494;28;20017;-69
2023/08/02 08:54:32;;;;;;;1.20;0.47;;;21.00;99.90;;;;;;5096313;28;20385;-69
2023/08/02 08:56:59;;;;;;;0.30;0.20;;;21.20;99.90;;;;;;5095781;28;20369;-69
2023/08/02 08:59:25;;;;;;;2.45;1.40;;;21.40;99.90;;;;;;5089227;28;20031;-69
2023/08/02 09:01:52;;;;;;;0.65;0.65;;;21.00;99.90;;;;;;5095690;28;20093;-69
2023/08/02 09:04:18;;;;;;;1.30;0.30;;;21.20;99.90;;;;;;5095567;28;20067;-69
2023/08/02 09:06:44;;;;;;;0.00;0.00;;;21.00;99.90;;;;;;5095673;28;20052;-69
2023/08/02 09:09:14;;;;;;;0.60;0.50;;;21.20;99.90;;;;;;5095447;28;20020;-69
2023/08/02 09:11:42;;;;;;;0.85;0.40;;;21.20;99.90;;;;;;5095696;28;20032;-69
2023/08/02 09:14:09;;;;;;;0.40;0.38;;;21.30;99.90;;;;;;5094903;28;20661;-70
2023/08/02 09:16:36;;;;;;;1.85;0.70;;;21.50;99.90;;;;;;5091664;28;20037;-69
2023/08/02 09:19:02;;;;;;;1.15;1.05;;;21.50;99.90;;;;;;5085716;28;20035;-69
2023/08/02 09:21:28;;;;;;;0.63;0.52;;;21.80;99.90;;;;;;5096184;28;20032;-69
2023/08/02 09:24:00;;;;;;;0.90;0.52;;;21.70;99.90;;;;;;5095513;28;20032;-70
2023/08/02 09:26:27;;;;;;;2.63;0.68;;;21.50;99.90;;;;;;5095555;28;20162;-68
2023/08/02 09:29:01;;;;;;;2.20;0.80;;;21.40;99.90;;;;;;5096103;28;20099;-69
2023/08/02 09:31:28;;;;;;;0.35;0.35;;;21.20;99.90;;;;;;5095819;28;20062;-68
2023/08/02 09:33:55;;;;;;;4.78;0.43;;;21.00;99.90;;;;;;5095968;28;20032;-69
2023/08/02 09:36:21;;;;;;;3.83;1.77;;;21.00;99.90;;;;;;5094820;28;20063;-69
2023/08/02 09:38:58;;;;;;;0.00;0.00;;;20.70;99.90;;;;;;5095848;28;20053;-69
2023/08/02 09:41:25;;;;;;;0.08;0.08;;;20.80;99.90;;;;;;5096233;28;20023;-69
2023/08/02 09:43:52;;;;;;;0.00;0.00;;;20.90;99.90;;;;;;5095613;28;20016;-69
2023/08/02 09:46:28;;;;;;;4.22;0.55;;;21.00;99.90;;;;;;5096041;28;20411;-69
2023/08/02 09:48:56;;;;;;;0.00;0.00;;;20.80;99.90;;;;;;5095741;28;20050;-69
2023/08/02 09:51:22;;;;;;;1.15;0.30;;;20.50;99.90;;;;;;5095764;28;20024;-69
2023/08/02 09:53:55;;;;;;;1.40;0.50;;;20.50;99.90;;;;;;5095640;28;20431;-69
2023/08/02 09:56:24;;;;;;;0.00;0.00;;;20.70;99.90;;;;;;5095573;28;20028;-69
2023/08/02 09:58:55;;;;;;;4.47;0.38;;;20.80;99.90;;;;;;5095369;28;20369;-69
2023/08/02 10:01:23;;;;;;;3.22;0.28;;;20.70;99.90;;;;;;5094894;28;20038;-69
2023/08/02 10:03:55;;;;;;;2.83;1.40;;;20.80;99.90;;;;;;5095181;28;20040;-70
2023/08/02 10:06:27;;;;;;;0.32;0.32;;;20.90;99.90;;;;;;5094344;28;20476;-71
2023/08/02 10:09:00;;;;;;;4.28;0.68;;;20.90;99.90;;;;;;5095497;28;20077;-71
2023/08/02 10:11:27;;;;;;;1.00;0.28;;;21.00;99.90;;;;;;5077070;28;20107;-72
2023/08/02 10:13:55;;;;;;;4.28;0.10;;;21.00;99.90;;;;;;5095371;28;20507;-73
2023/08/02 10:16:23;;;;;;;0.05;0.05;;;21.30;99.90;;;;;;5093727;28;20377;-70
2023/08/02 10:18:50;;;;;;;0.00;0.00;;;21.30;99.90;;;;;;5083004;28;20024;-70
2023/08/02 10:21:18;;;;;;;3.35;0.40;;;21.70;99.90;;;;;;5084168;28;20538;-69
2023/08/02 10:23:45;;;;;;;0.20;0.20;;;21.70;99.90;;;;;;5078451;28;20024;-70
2023/08/02 10:26:11;;;;;;;5.53;0.52;;;21.90;99.90;;;;;;5078450;28;20078;-69
2023/08/02 10:28:38;;;;;;;1.20;0.43;;;21.80;99.90;;;;;;5081836;28;20016;-70
2023/08/02 10:31:07;;;;;;;1.05;0.45;;;22.30;99.90;;;;;;5076991;28;20077;-70
2023/08/02 10:33:33;;;;;;;0.00;0.00;;;22.20;99.90;;;;;;5079500;28;20051;-69
2023/08/02 10:36:08;;;;;;;0.20;0.10;;;22.20;99.90;;;;;;5072610;28;20062;-70
2023/08/02 10:38:41;;;;;;;2.30;1.52;;;21.40;99.90;;;;;;5076181;28;20048;-69
2023/08/02 10:41:12;;;;;;;4.47;0.55;;;21.40;99.90;;;;;;5076976;28;20099;-69
2023/08/02 10:43:54;;;;;;;1.50;0.73;;;21.50;99.90;;;;;;5081785;28;20020;-69
2023/08/02 10:46:28;;;;;;;0.90;0.35;;;21.10;99.90;;;;;;5077504;28;20032;-70
2023/08/02 10:48:56;;;;;;;0.05;0.05;;;21.00;99.90;;;;;;5082472;28;20074;-69
2023/08/02 10:51:33;;;;;;;4.90;0.85;;;21.20;99.90;;;;;;5076439;28;20053;-70
2023/08/02 10:54:31;;;;;;;0.60;0.32;;;21.20;99.90;;;;;;5079898;28;20492;-70
2023/08/02 10:57:04;;;;;;;7.00;0.70;;;21.40;99.90;;;;;;5066675;28;20032;-69
2023/08/02 10:59:31;;;;;;;4.07;1.15;;;21.80;99.90;;;;;;5078256;28;20388;-69
2023/08/02 11:01:58;;;;;;;0.35;0.35;;;22.20;99.90;;;;;;5075383;28;20032;-69
2023/08/02 11:04:25;;;;;;;0.28;0.28;;;22.10;99.90;;;;;;5072785;28;20548;-69
2023/08/02 11:06:52;;;;;;;0.20;0.20;;;22.50;99.90;;;;;;5077877;28;20012;-71
2023/08/02 11:09:34;;;;;;;1.60;1.05;;;22.80;99.90;;;;;;5075387;28;20032;-71
2023/08/02 11:12:16;;;;;;;4.88;1.10;;;22.90;99.90;;;;;;5081928;28;20024;-70
2023/08/02 11:14:44;;;;;;;1.35;0.90;;;23.00;99.90;;;;;;5073949;28;20033;-70
2023/08/02 11:17:11;;;;;;;1.77;0.22;;;23.20;99.90;;;;;;5081430;28;20036;-71
2023/08/02 11:19:37;;;;;;;1.30;0.52;;;22.70;99.90;;;;;;5092776;28;20032;-71
2023/08/02 11:22:03;;;;;;;2.20;1.80;;;22.60;99.90;;;;;;5092804;28;20024;-70
2023/08/02 11:24:50;;;;;;;3.55;0.80;;;23.20;99.90;;;;;;5092484;28;20039;-70
2023/08/02 11:27:22;;;;;;;0.55;0.55;;;23.50;99.90;;;;;;5074623;28;20028;-70
2023/08/02 11:30:00;;;;;;;0.32;0.32;;;23.50;99.90;;;;;;5072440;28;20062;-71
2023/08/02 11:32:27;;;;;;;4.20;0.77;;;23.70;99.90;;;;;;5072435;28;20037;-71
2023/08/02 11:34:54;;;;;;;3.30;0.65;;;23.70;99.90;;;;;;5072038;28;20033;-71
2023/08/02 11:37:20;;;;;;;0.60;0.20;;;23.60;99.90;;;;;;5073186;28;20147;-71
2023/08/02 11:39:54;;;;;;;0.65;0.10;;;23.60;99.90;;;;;;5077492;28;20027;-70
2023/08/02 11:42:20;;;;;;;0.28;0.28;;;23.70;99.90;;;;;;5076170;28;20450;-71
2023/08/02 11:44:46;;;;;;;0.00;0.00;;;23.20;99.90;;;;;;5071363;28;20020;-77
2023/08/02 11:47:12;;;;;;;0.08;0.08;;;22.60;99.90;;;;;;5072949;28;20488;-77
2023/08/02 11:49:56;;;;;;;1.60;0.77;;;22.30;99.90;;;;;;5072781;28;20029;-76
2023/08/02 11:52:27;;;;;;;0.17;0.15;;;22.20;99.90;;;;;;5071494;28;20025;-77
2023/08/02 11:54:53;;;;;;;0.80;0.35;;;22.70;99.90;;;;;;5072980;28;20154;-78
2023/08/02 11:57:21;;;;;;;3.15;0.57;;;22.90;99.90;;;;;;5072542;28;20066;-78
2023/08/02 11:59:50;;;;;;;3.42;1.33;;;23.00;99.90;;;;;;5072764;28;20078;-80
2023/08/02 12:02:26;;;;;;;0.20;0.20;;;22.90;99.90;;;;;;5072349;28;20040;-71
2023/08/02 12:04:52;;;;;;;0.73;0.55;;;23.40;99.90;;;;;;5071384;28;20032;-70
2023/08/02 12:07:32;;;;;;;0.75;0.10;;;23.10;99.90;;;;;;5071752;28;20051;-70
2023/08/02 12:10:01;;;;;;;2.30;0.47;;;23.50;99.90;;;;;;5072403;28;20024;-74
2023/08/02 12:12:31;;;;;;;0.40;0.13;;;23.80;99.90;;;;;;5071231;28;20396;-70
2023/08/02 12:14:58;;;;;;;1.23;0.10;;;24.10;99.90;;;;;;5072409;28;20023;-70
2023/08/02 12:17:24;;;;;;;3.30;0.30;;;24.20;99.90;;;;;;5072622;28;20385;-70
2023/08/02 12:19:51;;;;;;;7.47;0.40;;;24.30;99.90;;;;;;5089191;28;20024;-70
2023/08/02 12:22:19;;;;;;;1.58;0.35;;;23.40;99.90;;;;;;5091766;28;20357;-69
2023/08/02 12:24:45;;;;;;;3.60;0.70;;;22.80;99.90;;;;;;5093010;28;20016;-70
2023/08/02 12:27:18;;;;;;;0.00;0.00;;;22.70;99.90;;;;;;5092892;28;20149;-70
2023/08/02 12:29:45;;;;;;;2.63;0.40;;;22.70;99.90;;;;;;5092770;28;20024;-70
2023/08/02 12:32:26;;;;;;;0.20;0.20;;;22.50;99.90;;;;;;5088869;28;20028;-70
2023/08/02 12:34:51;;;;;;;0.47;0.20;;;22.90;99.90;;;;;;5078501;28;20183;-73
2023/08/02 12:37:17;;;;;;;1.08;0.25;;;23.20;99.90;;;;;;5071924;28;20049;-76
2023/08/02 12:39:43;;;;;;;0.95;0.32;;;23.50;99.90;;;;;;5072689;28;20078;-76
2023/08/02 12:42:09;;;;;;;0.95;0.57;;;23.50;99.90;;;;;;5072416;28;20119;-78
2023/08/02 12:44:35;;;;;;;0.43;0.32;;;24.10;99.90;;;;;;5072534;28;20048;-77
2023/08/02 12:47:01;;;;;;;4.82;0.57;;;23.70;99.90;;;;;;5072515;28;20040;-78